Time;durP1;ratioP1;P1;durP2;ratioP2;P2;SDS_P1;SDS_P2;PMS_P1;PMS_P2;Temp;Humidity;BMP_temperature;BMP_pressure;BME280_temperature;BME280_humidity;BME280_pressure;Samples;Min_cycle;Max_cycle;Signal;HPM_P1;HPM_P2
2022/09/29 00:00:25;;;;;;;3.47;3.17;;;;;;;11.79;100.00;98726.25;1700336;83;21544;-57
2022/09/29 00:02:52;;;;;;;;;;;;;;;11.86;100.00;98730.20;1707164;83;21514;-58
2022/09/29 00:05:19;;;;;;;2.83;2.62;;;;;;;11.90;100.00;98731.73;1681255;83;20506;-57
2022/09/29 00:07:46;;;;;;;3.22;2.92;;;;;;;11.89;100.00;98730.02;1685101;83;21538;-57
2022/09/29 00:10:12;;;;;;;3.58;3.00;;;;;;;11.88;100.00;98728.31;1692021;83;21863;-57
2022/09/29 00:12:39;;;;;;;3.33;2.77;;;;;;;11.85;100.00;98724.58;1692617;83;21622;-57
2022/09/29 00:15:07;;;;;;;3.52;3.10;;;;;;;11.77;100.00;98731.64;1688092;82;21558;-56
2022/09/29 00:17:34;;;;;;;4.33;3.10;;;;;;;11.75;100.00;98733.49;1697727;82;21577;-57
2022/09/29 00:20:01;;;;;;;4.12;2.98;;;;;;;11.73;100.00;98741.96;1701018;82;21553;-57
2022/09/29 00:22:28;;;;;;;3.10;2.80;;;;;;;11.61;100.00;98744.89;1703720;82;21930;-57
2022/09/29 00:24:55;;;;;;;5.60;2.75;;;;;;;11.61;100.00;98744.89;1695805;82;21423;-57
2022/09/29 00:27:21;;;;;;;5.42;2.47;;;;;;;11.56;100.00;98741.69;1688379;82;21523;-58
2022/09/29 00:29:49;;;;;;;2.77;2.58;;;;;;;11.60;100.00;98745.84;1684052;82;21459;-57
2022/09/29 00:32:16;;;;;;;2.90;2.50;;;;;;;11.62;100.00;98750.55;1695314;82;21622;-57
2022/09/29 00:34:42;;;;;;;2.77;2.58;;;;;;;11.66;100.00;98751.20;1682525;82;21841;-58
2022/09/29 00:37:09;;;;;;;2.60;2.40;;;;;;;11.66;100.00;98744.63;1680882;82;21093;-57
2022/09/29 00:39:35;;;;;;;2.55;2.30;;;;;;;11.66;100.00;98748.09;1719347;81;21476;-57
2022/09/29 00:42:03;;;;;;;2.17;2.08;;;;;;;11.70;100.00;98751.39;1729097;81;21535;-57
2022/09/29 00:45:15;;;;;;;2.17;2.05;;;;;;;11.74;100.00;98749.42;1714995;81;21476;-57
2022/09/29 00:47:44;;;;;;;2.30;2.00;;;;;;;11.79;100.00;98757.86;1714521;80;21781;-57
2022/09/29 00:50:19;;;;;;;2.20;2.10;;;;;;;11.80;100.00;98760.88;1716868;80;21508;-58
2022/09/29 00:52:53;;;;;;;2.75;2.55;;;;;;;11.83;100.00;98762.86;1719874;80;21671;-58
2022/09/29 00:55:30;;;;;;;2.10;2.00;;;;;;;11.86;100.00;98764.44;1721751;80;21554;-56
2022/09/29 00:58:09;;;;;;;2.83;2.40;;;;;;;11.87;100.00;98768.78;1727290;80;21518;-57
2022/09/29 01:00:37;;;;;;;5.37;2.25;;;;;;;11.87;100.00;98776.20;1730270;80;21605;-59
2022/09/29 01:03:07;;;;;;;2.62;2.40;;;;;;;11.83;100.00;98782.61;1713719;82;21547;-57
2022/09/29 01:05:38;;;;;;;2.60;2.40;;;;;;;11.80;100.00;98783.27;1678471;83;21506;-57
2022/09/29 01:08:22;;;;;;;6.17;2.37;;;;;;;11.75;100.00;98788.80;1679295;84;21616;-57
2022/09/29 01:10:50;;;;;;;2.40;2.17;;;;;;;11.76;100.00;98792.30;1680846;84;21574;-58
2022/09/29 01:13:18;;;;;;;;;;;;;;;11.78;100.00;98787.78;1734129;80;21868;-57
2022/09/29 01:15:44;;;;;;;2.95;2.37;;;;;;;11.75;100.00;98790.11;1712170;81;20434;-57
2022/09/29 01:18:11;;;;;;;2.20;2.08;;;;;;;11.74;100.00;98789.75;1687394;83;21546;-57
2022/09/29 01:20:55;;;;;;;2.85;2.35;;;;;;;11.77;100.00;98795.30;1683576;84;21475;-57
2022/09/29 01:23:49;;;;;;;2.40;2.30;;;;;;;11.74;100.00;98789.75;1714558;81;21565;-57
2022/09/29 01:26:49;;;;;;;3.47;2.27;;;;;;;11.75;100.00;98794.55;1680157;84;21811;-57
2022/09/29 01:29:34;;;;;;;4.22;2.35;;;;;;;11.77;100.00;98793.97;1690111;81;21660;-57
2022/09/29 01:32:27;;;;;;;3.05;2.10;;;;;;;11.78;100.00;98796.52;1712193;81;21566;-58
2022/09/29 01:35:05;;;;;;;2.58;2.37;;;;;;;11.76;100.00;98801.52;1718482;81;21547;-57
2022/09/29 01:38:11;;;;;;;2.77;2.58;;;;;;;11.70;100.00;98794.84;1716220;81;21479;-57
2022/09/29 01:40:56;;;;;;;3.08;2.77;;;;;;;11.64;100.00;98793.42;1727875;81;21718;-57
2022/09/29 01:43:36;;;;;;;2.90;2.62;;;;;;;11.64;100.00;98799.14;1680258;84;21451;-57
2022/09/29 01:46:17;;;;;;;3.37;2.65;;;;;;;11.63;100.00;98802.25;1672647;84;21518;-57
2022/09/29 01:48:48;;;;;;;3.10;2.80;;;;;;;11.68;100.00;98808.57;1716071;81;21456;-58
2022/09/29 01:51:26;;;;;;;3.02;2.45;;;;;;;11.65;100.00;98808.27;1724176;81;21538;-57
2022/09/29 01:53:55;;;;;;;3.25;2.98;;;;;;;11.62;100.00;98814.18;1714365;81;22124;-58
2022/09/29 01:56:55;;;;;;;3.80;2.75;;;;;;;11.68;100.00;98812.52;1717137;81;21629;-57
2022/09/29 01:59:27;;;;;;;3.20;2.77;;;;;;;11.74;100.00;98809.98;1662549;83;21756;-57
2022/09/29 02:01:58;;;;;;;2.65;2.50;;;;;;;11.78;100.00;98812.80;1717323;80;21513;-57
2022/09/29 02:04:39;;;;;;;4.00;2.92;;;;;;;11.83;100.00;98814.69;1722233;80;21582;-57
2022/09/29 02:07:29;;;;;;;4.78;3.20;;;;;;;11.84;100.00;98816.38;1689061;82;21552;-58
2022/09/29 02:10:01;;;;;;;2.65;2.40;;;;;;;11.85;100.00;98816.77;1683622;84;21060;-57
2022/09/29 02:12:31;;;;;;;3.25;2.80;;;;;;;11.82;100.00;98818.25;1683895;84;20970;-57
2022/09/29 02:14:58;;;;;;;3.20;2.90;;;;;;;11.86;100.00;98826.34;1687610;84;20974;-57
2022/09/29 02:17:32;;;;;;;2.85;2.60;;;;;;;11.86;100.00;98825.86;1687687;84;21521;-57
2022/09/29 02:19:59;;;;;;;2.67;2.47;;;;;;;11.93;100.00;98826.38;1685936;84;21948;-57
2022/09/29 02:22:26;;;;;;;2.97;2.77;;;;;;;11.95;100.00;98831.56;1685655;84;21046;-57
2022/09/29 02:24:54;;;;;;;3.02;2.72;;;;;;;11.94;100.00;98829.84;1690463;84;21482;-57
2022/09/29 02:27:22;;;;;;;3.90;2.95;;;;;;;11.96;100.00;98835.87;1680112;83;21578;-57
2022/09/29 02:29:48;;;;;;;2.70;2.50;;;;;;;11.97;100.00;98832.31;1706192;82;21507;-58
2022/09/29 02:32:15;;;;;;;2.80;2.60;;;;;;;11.95;100.00;98834.19;1723826;81;21882;-57
2022/09/29 02:34:44;;;;;;;2.92;2.72;;;;;;;11.92;100.00;98833.05;1686974;82;21541;-58
2022/09/29 02:37:55;;;;;;;2.83;2.50;;;;;;;11.89;100.00;98824.84;1688377;83;21632;-58
2022/09/29 02:40:30;;;;;;;2.65;2.45;;;;;;;11.93;100.00;98834.28;1687740;84;21038;-57
2022/09/29 02:43:29;;;;;;;2.70;2.50;;;;;;;11.85;100.00;98822.86;1681448;84;21053;-57
2022/09/29 02:46:19;;;;;;;2.70;2.45;;;;;;;11.82;100.00;98823.52;1716284;81;21412;-57
2022/09/29 02:49:25;;;;;;;3.00;2.80;;;;;;;11.77;100.00;98819.87;1684400;84;21423;-59
2022/09/29 02:51:57;;;;;;;3.60;2.52;;;;;;;11.78;100.00;98820.70;1688022;84;21553;-59
2022/09/29 02:55:03;;;;;;;2.95;2.75;;;;;;;11.79;100.00;98827.20;1686311;84;21538;-58
2022/09/29 02:57:38;;;;;;;4.15;2.67;;;;;;;11.78;100.00;98825.97;1702489;82;21059;-60
2022/09/29 03:00:13;;;;;;;2.55;2.33;;;;;;;11.75;100.00;98828.30;1669075;84;21708;-58
2022/09/29 03:02:42;;;;;;;2.37;2.27;;;;;;;11.75;100.00;98828.78;1670585;84;21870;-59
2022/09/29 03:05:13;;;;;;;;;;;;;;;11.73;100.00;98829.34;1676195;83;21551;-58
2022/09/29 03:07:41;;;;;;;2.33;2.20;;;;;;;11.60;100.00;98826.15;1670888;83;20486;-59
2022/09/29 03:10:09;;;;;;;2.70;2.50;;;;;;;11.54;100.00;98832.23;1681696;84;21569;-57
2022/09/29 03:12:37;;;;;;;3.52;3.22;;;;;;;11.52;100.00;98836.27;1683536;83;21448;-58
2022/09/29 03:15:06;;;;;;;3.00;2.80;;;;;;;11.54;100.00;98830.92;1695135;84;21485;-58
2022/09/29 03:17:32;;;;;;;3.08;2.87;;;;;;;11.55;100.00;98829.52;1677231;84;21518;-57
2022/09/29 03:19:59;;;;;;;3.20;3.00;;;;;;;11.56;100.00;98836.46;1713482;80;21644;-58
2022/09/29 03:22:26;;;;;;;2.83;2.62;;;;;;;11.62;100.00;98836.12;1729363;81;21484;-59
2022/09/29 03:24:53;;;;;;;4.85;3.47;;;;;;;11.63;100.00;98841.74;1687472;84;21825;-58
2022/09/29 03:27:20;;;;;;;3.52;3.22;;;;;;;11.56;100.00;98838.25;1673600;84;21499;-58
2022/09/29 03:29:46;;;;;;;5.20;3.65;;;;;;;11.59;100.00;98829.70;1715683;81;20947;-58
2022/09/29 03:32:13;;;;;;;2.67;2.47;;;;;;;11.61;100.00;98840.16;1724166;80;21049;-58
2022/09/29 03:34:40;;;;;;;2.87;2.67;;;;;;;11.59;100.00;98840.23;1679291;84;21443;-58
2022/09/29 03:37:06;;;;;;;2.85;2.65;;;;;;;11.61;100.00;98839.67;1725422;81;21817;-58
2022/09/29 03:39:33;;;;;;;2.62;2.42;;;;;;;11.63;100.00;98844.85;1676409;84;21537;-58
2022/09/29 03:41:59;;;;;;;3.42;3.22;;;;;;;11.64;100.00;98845.21;1688669;84;21581;-57
2022/09/29 03:44:26;;;;;;;3.65;2.67;;;;;;;11.68;100.00;98843.64;1683141;84;21443;-58
2022/09/29 03:46:53;;;;;;;3.20;2.90;;;;;;;11.72;100.00;98846.09;1684912;84;21514;-58
2022/09/29 03:49:19;;;;;;;3.92;3.10;;;;;;;11.77;100.00;98855.86;1714569;81;21837;-57
2022/09/29 03:51:46;;;;;;;3.12;2.92;;;;;;;11.78;100.00;98857.09;1693385;82;21550;-58
2022/09/29 03:54:14;;;;;;;3.25;3.05;;;;;;;11.80;100.00;98867.55;1715815;81;21463;-58
2022/09/29 03:56:41;;;;;;;2.85;2.65;;;;;;;11.76;100.00;98869.98;1682218;84;21558;-58
2022/09/29 03:59:10;;;;;;;3.25;2.98;;;;;;;11.76;100.00;98876.09;1686888;84;21616;-57
2022/09/29 04:01:38;;;;;;;2.92;2.67;;;;;;;11.79;100.00;98882.50;1685180;84;21812;-58
2022/09/29 04:04:05;;;;;;;3.02;2.83;;;;;;;11.83;100.00;98882.70;1683274;84;21546;-58
2022/09/29 04:06:32;;;;;;;3.85;3.27;;;;;;;11.81;100.00;98875.36;1677266;84;21499;-58
2022/09/29 04:08:59;;;;;;;2.97;2.77;;;;;;;11.77;100.00;98875.61;1675985;84;21065;-57
2022/09/29 04:11:27;;;;;;;3.10;2.90;;;;;;;11.77;100.00;98876.48;1691506;84;21765;-58
2022/09/29 04:13:55;;;;;;;2.92;2.72;;;;;;;11.79;100.00;98876.37;1724970;82;21505;-58
2022/09/29 04:16:21;;;;;;;3.17;2.95;;;;;;;11.82;100.00;98875.72;1725792;80;21569;-58
2022/09/29 04:18:49;;;;;;;;;;;;;;;11.85;100.00;98876.86;1721693;80;21637;-59
2022/09/29 04:21:16;;;;;;;3.05;2.85;;;;;;;11.87;100.00;98880.73;1711779;81;20604;-60
2022/09/29 04:23:42;;;;;;;5.92;2.92;;;;;;;11.91;100.00;98886.69;1719554;81;21127;-58
2022/09/29 04:26:09;;;;;;;3.17;2.98;;;;;;;11.91;100.00;98891.96;1721165;81;21786;-59
2022/09/29 04:28:36;;;;;;;3.95;3.25;;;;;;;11.92;100.00;98891.84;1718960;80;21550;-59
2022/09/29 04:31:03;;;;;;;3.25;3.05;;;;;;;11.95;100.00;98896.09;1742517;80;21533;-59
2022/09/29 04:33:30;;;;;;;3.08;2.77;;;;;;;11.94;100.00;98895.27;1741701;80;21495;-59
2022/09/29 04:35:58;;;;;;;3.55;3.25;;;;;;;11.91;100.00;98894.11;1726844;80;21439;-59
2022/09/29 04:38:24;;;;;;;4.08;3.75;;;;;;;11.94;100.00;98899.21;1739932;80;21925;-59
2022/09/29 04:40:51;;;;;;;4.22;3.83;;;;;;;12.01;100.00;98903.14;1743003;80;21518;-59
2022/09/29 04:43:18;;;;;;;3.83;3.50;;;;;;;12.06;100.00;98896.30;1739577;80;21463;-60
2022/09/29 04:45:45;;;;;;;4.17;3.80;;;;;;;12.06;100.00;98890.55;1740386;81;21498;-59
2022/09/29 04:48:13;;;;;;;3.65;3.33;;;;;;;12.10;100.00;98899.11;1726808;80;20928;-59
2022/09/29 04:50:40;;;;;;;5.13;3.97;;;;;;;12.14;100.00;98898.46;1696552;83;21616;-61
2022/09/29 04:53:07;;;;;;;3.60;3.30;;;;;;;12.17;100.00;98898.28;1698745;83;21568;-59
2022/09/29 04:55:36;;;;;;;;;;;;;;;12.20;100.00;98898.08;1697900;82;21446;-59
2022/09/29 04:58:03;;;;;;;5.15;3.70;;;;;;;12.13;100.00;98887.08;1695317;82;20468;-59
2022/09/29 05:00:31;;;;;;;3.72;3.45;;;;;;;12.13;100.00;98886.22;1706358;82;21901;-59
2022/09/29 05:02:59;;;;;;;3.72;3.42;;;;;;;12.11;100.00;98890.73;1704544;83;21418;-59
2022/09/29 05:05:26;;;;;;;4.10;3.15;;;;;;;12.10;100.00;98893.84;1698685;83;21455;-59
2022/09/29 05:07:53;;;;;;;3.77;3.47;;;;;;;12.08;100.00;98896.56;1697959;83;21501;-58
2022/09/29 05:10:19;;;;;;;3.60;3.40;;;;;;;12.11;100.00;98902.59;1696811;83;21482;-59
2022/09/29 05:12:49;;;;;;;3.47;3.17;;;;;;;12.13;100.00;98902.02;1704352;82;21501;-59
2022/09/29 05:15:17;;;;;;;3.52;3.33;;;;;;;12.17;100.00;98908.83;1691630;82;21475;-59
2022/09/29 05:17:44;;;;;;;;;;;;;;;12.27;100.00;98910.78;1695546;82;21585;-59
2022/09/29 05:20:11;;;;;;;3.35;3.12;;;;;;;12.30;100.00;98914.17;1664219;85;20467;-59
2022/09/29 05:22:38;;;;;;;3.47;3.17;;;;;;;12.33;100.00;98916.15;1671957;84;21010;-59
2022/09/29 05:25:07;;;;;;;3.58;3.27;;;;;;;12.38;100.00;98916.72;1691556;82;21307;-59
2022/09/29 05:27:36;;;;;;;3.83;3.20;;;;;;;12.44;100.00;98922.09;1687468;83;21756;-59
2022/09/29 05:30:04;;;;;;;3.10;2.80;;;;;;;12.51;100.00;98918.58;1690952;82;21531;-59
2022/09/29 05:32:30;;;;;;;;;;;;;;;12.53;100.00;98917.56;1686725;82;21540;-59
2022/09/29 05:34:58;;;;;;;3.02;2.72;;;;;;;12.55;100.00;98920.95;1693779;82;20196;-58
2022/09/29 05:37:25;;;;;;;3.25;3.05;;;;;;;12.57;100.00;98919.54;1684497;83;21567;-59
2022/09/29 05:39:51;;;;;;;2.87;2.58;;;;;;;12.64;100.00;98911.14;1689460;82;21833;-60
2022/09/29 05:42:19;;;;;;;3.60;2.80;;;;;;;12.68;100.00;98917.08;1692095;82;20947;-59
2022/09/29 05:44:45;;;;;;;2.72;2.52;;;;;;;12.74;100.00;98921.95;1693972;82;21539;-60
2022/09/29 05:47:12;;;;;;;4.12;2.52;;;;;;;12.78;100.00;98918.17;1688473;82;21519;-59
2022/09/29 05:49:39;;;;;;;3.08;2.47;;;;;;;12.86;100.00;98929.55;1689714;83;21447;-59
2022/09/29 05:52:06;;;;;;;2.98;2.75;;;;;;;12.94;100.00;98919.83;1697675;82;27000;-59
2022/09/29 05:54:33;;;;;;;4.42;2.70;;;;;;;12.98;100.00;98925.31;1688919;82;21579;-59
2022/09/29 05:57:00;;;;;;;3.47;2.85;;;;;;;13.02;100.00;98922.84;1680121;84;21551;-59
2022/09/29 05:59:27;;;;;;;2.30;2.20;;;;;;;13.07;100.00;98922.05;1680114;82;21444;-60
2022/09/29 06:01:53;;;;;;;2.90;2.70;;;;;;;13.12;100.00;98926.56;1694399;82;21543;-59
2022/09/29 06:04:23;;;;;;;2.58;2.37;;;;;;;13.17;100.00;98928.93;1685611;82;21885;-59
2022/09/29 06:06:50;;;;;;;2.37;2.17;;;;;;;13.24;100.00;98934.16;1689312;84;21445;-59
2022/09/29 06:09:17;;;;;;;2.70;2.50;;;;;;;13.33;100.00;98941.52;1692415;82;21601;-59
2022/09/29 06:11:43;;;;;;;3.05;2.58;;;;;;;13.39;100.00;98934.53;1690517;82;21700;-60
2022/09/29 06:14:11;;;;;;;2.92;2.65;;;;;;;13.46;100.00;98936.28;1691761;82;21574;-59
2022/09/29 06:16:38;;;;;;;2.67;2.47;;;;;;;13.57;100.00;98939.54;1681158;82;21930;-59
2022/09/29 06:19:06;;;;;;;2.47;2.27;;;;;;;13.72;100.00;98942.95;1675570;82;21570;-59
2022/09/29 06:21:34;;;;;;;2.55;2.35;;;;;;;13.77;100.00;98943.02;1689466;82;22326;-59
2022/09/29 06:24:01;;;;;;;2.20;2.10;;;;;;;13.81;100.00;98939.70;1694637;82;21554;-59
2022/09/29 06:26:28;;;;;;;2.40;2.20;;;;;;;13.78;100.00;98938.09;1684758;84;21526;-60
2022/09/29 06:28:55;;;;;;;2.47;2.22;;;;;;;13.80;100.00;98940.64;1676402;82;21813;-59
2022/09/29 06:31:24;;;;;;;2.17;2.08;;;;;;;13.86;100.00;98932.28;1666133;83;21497;-60
2022/09/29 06:33:50;;;;;;;2.10;2.00;;;;;;;13.92;100.00;98934.53;1729737;80;21483;-60
2022/09/29 06:39:13;;;;;;;3.20;2.22;;;;;;;14.02;100.00;98931.63;1717054;81;21562;-60
2022/09/29 06:41:40;;;;;;;4.05;2.30;;;;;;;14.09;100.00;98937.80;1718787;81;27282;-62
2022/09/29 06:44:07;;;;;;;3.15;2.40;;;;;;;14.16;100.00;98946.53;1661450;84;21400;-59
2022/09/29 06:46:35;;;;;;;2.50;2.30;;;;;;;14.19;100.00;98941.53;1692332;82;20995;-60
2022/09/29 06:49:01;;;;;;;3.42;2.20;;;;;;;14.20;100.00;98947.17;1684500;84;21628;-59
2022/09/29 06:51:28;;;;;;;2.27;2.08;;;;;;;14.27;100.00;98950.25;1720000;80;21440;-59
2022/09/29 06:53:56;;;;;;;2.47;2.27;;;;;;;14.33;100.00;98945.84;1723747;81;21817;-59
2022/09/29 06:56:23;;;;;;;2.55;2.35;;;;;;;14.37;100.00;98945.55;1724941;81;21729;-60
2022/09/29 06:58:51;;;;;;;2.83;2.08;;;;;;;14.44;100.00;98944.63;1731343;80;21546;-61
2022/09/29 07:01:18;;;;;;;2.33;2.12;;;;;;;14.50;100.00;98945.52;1728674;80;22659;-59
2022/09/29 07:03:44;;;;;;;2.45;2.20;;;;;;;14.62;100.00;98955.77;1689009;82;21537;-60
2022/09/29 07:06:12;;;;;;;2.30;2.20;;;;;;;14.72;100.00;98958.11;1682997;84;21743;-59
2022/09/29 07:08:39;;;;;;;3.30;1.87;;;;;;;14.78;100.00;98958.99;1719819;80;21452;-60
2022/09/29 07:11:07;;;;;;;2.17;1.98;;;;;;;14.90;100.00;98970.98;1729612;80;21598;-59
2022/09/29 07:13:34;;;;;;;3.70;2.07;;;;;;;14.99;100.00;98969.88;1736433;80;21034;-59
2022/09/29 07:16:09;;;;;;;2.25;2.00;;;;;;;15.06;100.00;98947.76;1723563;80;21569;-59
2022/09/29 07:18:39;;;;;;;1.80;1.70;;;;;;;15.16;100.00;98964.69;1685441;82;21814;-59
2022/09/29 07:21:08;;;;;;;2.00;1.90;;;;;;;15.29;100.00;98961.12;1681842;84;21620;-59
2022/09/29 07:23:36;;;;;;;1.92;1.72;;;;;;;15.45;100.00;98954.24;1680793;82;21002;-59
2022/09/29 07:26:06;;;;;;;1.82;1.72;;;;;;;15.56;100.00;98949.83;1685723;84;21076;-59
2022/09/29 07:28:33;;;;;;;3.22;1.60;;;;;;;15.64;100.00;98949.25;1672951;84;21108;-60
2022/09/29 07:31:04;;;;;;;1.95;1.85;;;;;;;15.75;100.00;98949.81;1690513;82;21809;-59
2022/09/29 07:33:31;;;;;;;2.50;1.27;;;;;;;15.86;100.00;98944.55;1726482;80;21609;-60
2022/09/29 07:35:59;;;;;;;1.62;1.52;;;;;;;15.98;100.00;98943.26;1721818;80;21491;-59
2022/09/29 07:38:27;;;;;;;3.98;1.30;;;;;;;16.14;100.00;98937.12;1677196;84;21546;-60
2022/09/29 07:40:53;;;;;;;1.55;1.42;;;;;;;16.26;100.00;98932.20;1728135;80;21575;-59
2022/09/29 07:43:20;;;;;;;1.10;1.10;;;;;;;16.39;100.00;98924.60;1718260;80;22076;-59
2022/09/29 07:45:48;;;;;;;1.87;1.10;;;;;;;16.52;100.00;98926.69;1723433;80;21507;-59
2022/09/29 07:48:16;;;;;;;1.15;1.12;;;;;;;16.65;100.00;98927.39;1679179;84;21511;-59
2022/09/29 07:50:43;;;;;;;0.93;0.93;;;;;;;16.73;100.00;98918.33;1737371;80;21049;-59
2022/09/29 07:53:10;;;;;;;0.90;0.90;;;;;;;16.81;100.00;98917.72;1723861;81;21519;-59
2022/09/29 07:55:38;;;;;;;2.90;1.70;;;;;;;16.86;100.00;98912.92;1723587;80;21916;-59
2022/09/29 07:58:05;;;;;;;1.25;1.15;;;;;;;16.95;100.00;98917.95;1733673;80;28765;-60
2022/09/29 08:00:32;;;;;;;1.35;1.25;;;;;;;17.04;100.00;98919.03;1717518;80;21104;-59
2022/09/29 08:03:04;;;;;;;2.80;1.43;;;;;;;17.13;100.00;98930.23;1727732;80;21033;-60
2022/09/29 08:05:32;;;;;;;1.02;0.90;;;;;;;17.18;100.00;98933.37;1732173;80;21486;-60
2022/09/29 08:08:01;;;;;;;1.42;1.32;;;;;;;17.24;100.00;98938.67;1721901;80;21779;-59
2022/09/29 08:10:29;;;;;;;1.05;1.05;;;;;;;17.36;100.00;98942.96;1718111;80;21035;-60
2022/09/29 08:12:56;;;;;;;1.60;1.50;;;;;;;17.49;100.00;98937.00;1732932;80;21589;-59
2022/09/29 08:15:23;;;;;;;1.82;1.30;;;;;;;17.63;100.00;98937.66;1728845;80;21481;-60
2022/09/29 08:17:56;;;;;;;1.62;1.52;;;;;;;17.72;100.00;98932.91;1736180;80;21000;-59
2022/09/29 08:20:23;;;;;;;3.17;2.17;;;;;;;17.84;100.00;98932.39;1716480;80;21862;-59
2022/09/29 08:22:49;;;;;;;1.77;1.42;;;;;;;17.96;100.00;98933.19;1730201;79;21541;-60
2022/09/29 08:25:16;;;;;;;5.62;1.62;;;;;;;18.01;100.00;98923.84;1737135;80;20959;-60
2022/09/29 08:27:45;;;;;;;3.30;1.70;;;;;;;18.09;100.00;98923.19;1728199;80;21516;-59
2022/09/29 08:30:12;;;;;;;3.62;1.45;;;;;;;18.15;100.00;98923.98;1729165;80;21092;-60
2022/09/29 08:32:41;;;;;;;2.33;1.60;;;;;;;18.27;100.00;98916.30;1685622;83;21490;-60
2022/09/29 08:35:08;;;;;;;3.47;1.60;;;;;;;18.42;100.00;98918.13;1705030;83;21600;-61
2022/09/29 08:37:35;;;;;;;4.60;1.67;;;;;;;18.53;100.00;98911.84;1702223;83;20981;-60
2022/09/29 08:40:02;;;;;;;2.17;1.77;;;;;;;18.67;100.00;98904.83;1690995;83;21601;-60
2022/09/29 08:42:59;;;;;;;2.80;1.80;;;;;;;18.83;100.00;98911.48;1698675;82;21632;-61
2022/09/29 08:45:40;;;;;;;5.05;1.77;;;;;;;18.92;100.00;98912.00;1689322;83;21765;-59
2022/09/29 08:48:14;;;;;;;1.80;1.70;;;;;;;19.05;100.00;98919.25;1700666;83;21531;-59
2022/09/29 08:50:55;;;;;;;1.70;1.60;;;;;;;19.17;99.77;98925.79;1682724;82;21672;-60
2022/09/29 08:53:23;;;;;;;2.30;1.45;;;;;;;19.28;99.09;98922.17;1684627;83;21038;-59
2022/09/29 08:56:05;;;;;;;1.80;1.70;;;;;;;19.39;97.61;98924.20;1680635;83;21530;-60
2022/09/29 08:58:32;;;;;;;4.40;1.50;;;;;;;19.48;96.36;98919.00;1680879;83;21831;-59
2022/09/29 09:01:22;;;;;;;2.22;1.80;;;;;;;19.56;95.47;98910.66;1687564;83;21581;-60
2022/09/29 09:04:04;;;;;;;1.70;1.60;;;;;;;19.61;95.58;98907.09;1684125;83;21630;-60
2022/09/29 09:07:17;;;;;;;1.70;1.60;;;;;;;19.69;94.58;98903.72;1616423;82;21742;-61
2022/09/29 09:10:22;;;;;;;2.52;1.40;;;;;;;19.80;95.62;98904.09;1673576;83;21551;-60
2022/09/29 09:12:54;;;;;;;1.52;1.42;;;;;;;19.86;92.96;98902.19;1691031;82;21786;-61
2022/09/29 09:15:42;;;;;;;1.30;1.20;;;;;;;19.81;92.38;98898.59;1689142;83;20970;-62
2022/09/29 09:18:24;;;;;;;1.40;1.30;;;;;;;19.82;92.28;98904.79;1684333;82;21546;-60
2022/09/29 09:21:18;;;;;;;1.30;1.20;;;;;;;19.87;91.50;98895.84;1685837;82;21480;-62
2022/09/29 09:23:56;;;;;;;1.47;1.22;;;;;;;19.92;91.69;98901.60;1686079;82;21396;-61
2022/09/29 09:26:34;;;;;;;2.33;1.37;;;;;;;19.95;90.84;98900.49;1688771;82;21878;-61
2022/09/29 09:29:31;;;;;;;3.37;1.22;;;;;;;19.93;90.36;98893.09;1689678;82;21551;-61
2022/09/29 09:32:20;;;;;;;1.40;1.30;;;;;;;19.91;89.78;98889.27;1679363;83;21573;-61
2022/09/29 09:34:56;;;;;;;1.20;1.10;;;;;;;19.95;89.93;98887.16;1671437;83;21504;-63
2022/09/29 09:37:27;;;;;;;2.00;1.20;;;;;;;20.01;89.89;98892.73;1675612;83;21514;-63
2022/09/29 09:40:01;;;;;;;2.75;1.30;;;;;;;20.11;89.61;98891.38;1680308;83;22113;-59
2022/09/29 09:42:34;;;;;;;2.62;1.10;;;;;;;20.16;88.29;98889.13;1683499;83;21894;-59
2022/09/29 09:45:09;;;;;;;2.92;1.30;;;;;;;20.27;86.96;98889.91;1684097;83;21537;-59
2022/09/29 09:47:50;;;;;;;0.90;0.88;;;;;;;20.30;85.87;98886.97;1681320;83;21938;-59
2022/09/29 09:50:21;;;;;;;1.00;1.00;;;;;;;20.34;84.14;98889.69;1675492;83;21476;-59
2022/09/29 09:53:11;;;;;;;1.15;1.05;;;;;;;20.36;83.03;98891.24;1645741;84;21872;-60
2022/09/29 09:55:40;;;;;;;0.70;0.70;;;;;;;20.39;81.06;98894.09;1674653;83;21067;-59
2022/09/29 09:58:30;;;;;;;1.10;1.00;;;;;;;20.41;80.25;98892.95;1671125;83;21721;-59
2022/09/29 10:01:02;;;;;;;2.55;1.00;;;;;;;20.42;80.15;98896.48;1672260;83;21488;-60
2022/09/29 10:03:29;;;;;;;0.98;0.98;;;;;;;20.47;79.69;98892.03;1668198;84;21500;-59
2022/09/29 10:05:55;;;;;;;0.90;0.90;;;;;;;20.49;79.88;98892.72;1678019;84;21556;-59
2022/09/29 10:08:28;;;;;;;0.87;0.83;;;;;;;20.50;78.50;98893.08;1666761;83;21558;-59
2022/09/29 10:10:57;;;;;;;0.80;0.80;;;;;;;20.58;78.61;98896.67;1674141;83;22060;-60
2022/09/29 10:13:27;;;;;;;1.37;1.00;;;;;;;20.61;77.64;98888.41;1668608;84;21516;-60
2022/09/29 10:16:02;;;;;;;0.60;0.60;;;;;;;20.62;75.17;98895.92;1666009;83;21523;-60
2022/09/29 10:18:44;;;;;;;2.35;0.70;;;;;;;20.62;75.17;98895.92;1684732;83;21886;-60
2022/09/29 10:21:37;;;;;;;0.60;0.60;;;;;;;20.64;74.07;98891.27;1672006;83;21552;-61
2022/09/29 10:24:08;;;;;;;0.60;0.60;;;;;;;20.73;72.74;98886.88;1672590;83;21542;-61
2022/09/29 10:26:44;;;;;;;0.70;0.60;;;;;;;20.91;71.00;98890.94;1686728;83;21086;-61
2022/09/29 10:29:34;;;;;;;0.62;0.50;;;;;;;21.11;69.49;98896.97;1672065;83;21583;-60
2022/09/29 10:32:37;;;;;;;0.50;0.50;;;;;;;21.22;68.91;98891.41;1662093;84;21806;-60
2022/09/29 10:35:26;;;;;;;1.12;0.50;;;;;;;21.27;67.58;98894.47;1696460;83;21603;-61
2022/09/29 10:38:05;;;;;;;0.93;0.62;;;;;;;21.42;67.46;98893.45;1690342;82;21535;-61
2022/09/29 10:40:32;;;;;;;1.02;0.62;;;;;;;21.53;66.38;98890.57;1695569;82;21112;-63
2022/09/29 10:42:59;;;;;;;0.72;0.65;;;;;;;21.70;66.09;98888.87;1696169;82;21105;-61
2022/09/29 10:45:30;;;;;;;0.75;0.60;;;;;;;21.84;65.29;98889.30;1649012;84;21814;-61
2022/09/29 10:48:07;;;;;;;0.60;0.60;;;;;;;21.99;64.68;98884.22;1686575;82;20962;-60
2022/09/29 10:50:54;;;;;;;2.92;0.72;;;;;;;22.22;63.04;98882.67;1681762;83;21566;-61
2022/09/29 10:53:30;;;;;;;1.87;0.60;;;;;;;22.22;63.04;98882.67;1666482;85;21444;-60
2022/09/29 10:55:57;;;;;;;2.17;0.72;;;;;;;22.27;61.74;98878.23;1645554;85;21578;-61
2022/09/29 10:58:41;;;;;;;1.65;0.80;;;;;;;22.27;61.74;98878.23;1619542;88;21854;-61
2022/09/29 11:01:12;;;;;;;2.30;0.55;;;;;;;22.23;60.88;98871.48;1654503;85;21573;-60
2022/09/29 11:03:53;;;;;;;0.60;0.60;;;;;;;22.27;60.06;98871.03;1614733;87;21091;-61
2022/09/29 11:06:28;;;;;;;1.00;0.70;;;;;;;22.27;60.06;98871.03;1654590;85;21657;-60
2022/09/29 11:09:05;;;;;;;0.60;0.60;;;;;;;22.35;59.18;98867.05;1642184;86;21562;-60
2022/09/29 11:11:50;;;;;;;0.78;0.78;;;;;;;22.34;58.12;98867.23;1656136;85;21845;-60
2022/09/29 11:14:40;;;;;;;2.33;0.70;;;;;;;22.30;59.26;98876.55;1667568;85;21452;-60
2022/09/29 11:17:34;;;;;;;0.80;0.70;;;;;;;22.18;60.08;98871.95;1619587;86;21638;-61
2022/09/29 11:20:04;;;;;;;0.75;0.75;;;;;;;22.04;60.00;98874.72;1649817;85;21642;-59
2022/09/29 11:23:02;;;;;;;4.35;0.80;;;;;;;22.05;60.68;98870.20;1621795;86;21557;-62
2022/09/29 11:25:56;;;;;;;0.57;0.57;;;;;;;22.25;61.41;98871.69;1657157;85;21618;-61
2022/09/29 11:28:44;;;;;;;0.68;0.60;;;;;;;22.50;60.58;98863.27;1642904;86;21547;-64
2022/09/29 11:31:39;;;;;;;;;;;;;;;22.64;59.91;98864.98;1657706;85;21610;-60
2022/09/29 11:34:53;;;;;;;0.70;0.65;;;;;;;22.79;57.28;98867.38;1664831;85;20494;-61
2022/09/29 11:37:29;;;;;;;2.50;0.80;;;;;;;22.87;60.53;98866.08;1638075;85;21397;-65
2022/09/29 11:40:04;;;;;;;0.80;0.80;;;;;;;22.94;59.68;98867.11;1671498;85;21806;-62
2022/09/29 11:45:02;;;;;;;0.98;0.70;;;;;;;22.48;63.86;98864.44;1783170;78;23205;-62
2022/09/29 11:47:53;;;;;;;0.60;0.60;;;;;;;23.01;56.70;98870.47;1745209;80;21565;-61
2022/09/29 11:51:01;;;;;;;0.80;0.80;;;;;;;23.01;56.70;98870.47;1727351;80;21973;-60
2022/09/29 11:53:34;;;;;;;1.95;0.72;;;;;;;22.98;56.44;98878.83;1704564;81;21554;-61
2022/09/29 11:56:27;;;;;;;0.72;0.68;;;;;;;22.92;56.38;98880.32;1677432;83;21572;-61
2022/09/29 11:59:16;;;;;;;0.98;0.60;;;;;;;22.94;56.35;98874.29;1699583;82;21009;-61
2022/09/29 12:02:21;;;;;;;0.93;0.80;;;;;;;23.16;54.59;98876.89;1698020;82;21519;-61